sensor_id;sensor_type;location;lat;lon;timestamp;P1;durP1;ratioP1;P2;durP2;ratioP2
44048;SDS011;29717;47.028;15.470;2023-08-06T00:00:52;3.72;;;1.52;;
44048;SDS011;29717;47.028;15.470;2023-08-06T00:03:19;3.50;;;1.98;;
44048;SDS011;29717;47.028;15.470;2023-08-06T00:05:46;3.63;;;2.65;;
44048;SDS011;29717;47.028;15.470;2023-08-06T00:08:12;2.90;;;2.60;;
44048;SDS011;29717;47.028;15.470;2023-08-06T00:10:40;3.05;;;2.47;;
44048;SDS011;29717;47.028;15.470;2023-08-06T00:13:07;4.35;;;3.13;;
44048;SDS011;29717;47.028;15.470;2023-08-06T00:15:34;3.22;;;2.97;;
44048;SDS011;29717;47.028;15.470;2023-08-06T00:18:00;4.25;;;3.00;;
44048;SDS011;29717;47.028;15.470;2023-08-06T00:20:27;3.20;;;2.90;;
44048;SDS011;29717;47.028;15.470;2023-08-06T00:22:54;3.00;;;2.70;;
44048;SDS011;29717;47.028;15.470;2023-08-06T00:25:20;3.75;;;2.70;;
44048;SDS011;29717;47.028;15.470;2023-08-06T00:27:48;2.80;;;2.60;;
44048;SDS011;29717;47.028;15.470;2023-08-06T00:30:15;6.22;;;2.80;;
44048;SDS011;29717;47.028;15.470;2023-08-06T00:32:42;2.83;;;2.53;;
44048;SDS011;29717;47.028;15.470;2023-08-06T00:35:09;3.28;;;2.92;;
44048;SDS011;29717;47.028;15.470;2023-08-06T00:37:35;2.38;;;2.28;;
44048;SDS011;29717;47.028;15.470;2023-08-06T00:40:02;2.45;;;2.25;;
44048;SDS011;29717;47.028;15.470;2023-08-06T00:42:29;3.00;;;2.72;;
44048;SDS011;29717;47.028;15.470;2023-08-06T00:44:57;3.05;;;2.75;;
44048;SDS011;29717;47.028;15.470;2023-08-06T00:47:24;2.47;;;2.28;;
44048;SDS011;29717;47.028;15.470;2023-08-06T00:49:51;2.30;;;2.10;;
44048;SDS011;29717;47.028;15.470;2023-08-06T00:52:18;2.10;;;2.00;;
44048;SDS011;29717;47.028;15.470;2023-08-06T00:54:44;2.78;;;2.13;;
44048;SDS011;29717;47.028;15.470;2023-08-06T00:57:11;3.55;;;1.88;;
44048;SDS011;29717;47.028;15.470;2023-08-06T00:59:38;2.03;;;1.75;;
44048;SDS011;29717;47.028;15.470;2023-08-06T01:02:06;2.28;;;1.92;;
44048;SDS011;29717;47.028;15.470;2023-08-06T01:04:33;2.88;;;1.77;;
44048;SDS011;29717;47.028;15.470;2023-08-06T01:07:02;2.00;;;1.90;;
44048;SDS011;29717;47.028;15.470;2023-08-06T01:09:33;2.80;;;1.80;;
44048;SDS011;29717;47.028;15.470;2023-08-06T01:12:05;2.22;;;1.95;;
44048;SDS011;29717;47.028;15.470;2023-08-06T01:14:33;2.03;;;1.80;;
44048;SDS011;29717;47.028;15.470;2023-08-06T01:17:05;2.67;;;2.00;;
44048;SDS011;29717;47.028;15.470;2023-08-06T01:19:33;2.42;;;2.20;;
44048;SDS011;29717;47.028;15.470;2023-08-06T01:22:01;1.88;;;1.70;;
44048;SDS011;29717;47.028;15.470;2023-08-06T01:24:28;2.20;;;2.10;;
44048;SDS011;29717;47.028;15.470;2023-08-06T01:26:57;1.90;;;1.80;;
44048;SDS011;29717;47.028;15.470;2023-08-06T01:29:28;2.00;;;1.90;;
44048;SDS011;29717;47.028;15.470;2023-08-06T01:31:57;2.45;;;1.83;;
44048;SDS011;29717;47.028;15.470;2023-08-06T01:34:25;2.53;;;2.20;;
44048;SDS011;29717;47.028;15.470;2023-08-06T01:36:54;2.25;;;1.70;;
44048;SDS011;29717;47.028;15.470;2023-08-06T01:39:22;2.10;;;2.00;;
44048;SDS011;29717;47.028;15.470;2023-08-06T01:41:49;4.38;;;2.10;;
44048;SDS011;29717;47.028;15.470;2023-08-06T01:44:15;2.17;;;2.08;;
44048;SDS011;29717;47.028;15.470;2023-08-06T01:46:42;3.67;;;2.03;;
44048;SDS011;29717;47.028;15.470;2023-08-06T01:49:09;2.95;;;1.88;;
44048;SDS011;29717;47.028;15.470;2023-08-06T01:51:35;2.00;;;1.90;;
44048;SDS011;29717;47.028;15.470;2023-08-06T01:54:02;2.03;;;1.80;;
44048;SDS011;29717;47.028;15.470;2023-08-06T01:56:30;5.28;;;2.50;;
44048;SDS011;29717;47.028;15.470;2023-08-06T01:58:57;2.65;;;2.45;;
44048;SDS011;29717;47.028;15.470;2023-08-06T02:01:23;2.63;;;2.13;;
44048;SDS011;29717;47.028;15.470;2023-08-06T02:03:50;2.10;;;1.90;;
44048;SDS011;29717;47.028;15.470;2023-08-06T02:06:17;4.05;;;1.90;;
44048;SDS011;29717;47.028;15.470;2023-08-06T02:08:43;4.15;;;2.08;;
44048;SDS011;29717;47.028;15.470;2023-08-06T02:11:10;4.40;;;2.33;;
44048;SDS011;29717;47.028;15.470;2023-08-06T02:13:38;1.95;;;1.83;;
44048;SDS011;29717;47.028;15.470;2023-08-06T02:16:06;4.63;;;2.40;;
44048;SDS011;29717;47.028;15.470;2023-08-06T02:18:33;2.20;;;2.00;;
44048;SDS011;29717;47.028;15.470;2023-08-06T02:20:59;4.93;;;2.20;;
44048;SDS011;29717;47.028;15.470;2023-08-06T02:23:26;2.75;;;1.92;;
44048;SDS011;29717;47.028;15.470;2023-08-06T02:26:02;3.72;;;2.22;;
44048;SDS011;29717;47.028;15.470;2023-08-06T02:28:29;1.92;;;1.83;;
44048;SDS011;29717;47.028;15.470;2023-08-06T02:30:57;2.30;;;2.10;;
44048;SDS011;29717;47.028;15.470;2023-08-06T02:33:24;2.10;;;2.00;;
44048;SDS011;29717;47.028;15.470;2023-08-06T02:35:51;2.60;;;2.20;;
44048;SDS011;29717;47.028;15.470;2023-08-06T02:38:18;3.20;;;2.90;;
44048;SDS011;29717;47.028;15.470;2023-08-06T02:40:44;2.45;;;2.25;;
44048;SDS011;29717;47.028;15.470;2023-08-06T02:43:11;2.20;;;2.00;;
44048;SDS011;29717;47.028;15.470;2023-08-06T02:45:38;4.38;;;2.25;;
44048;SDS011;29717;47.028;15.470;2023-08-06T02:48:06;2.38;;;2.17;;
44048;SDS011;29717;47.028;15.470;2023-08-06T02:50:37;2.47;;;2.28;;
44048;SDS011;29717;47.028;15.470;2023-08-06T02:53:04;4.15;;;2.42;;
44048;SDS011;29717;47.028;15.470;2023-08-06T02:55:30;3.65;;;3.30;;
44048;SDS011;29717;47.028;15.470;2023-08-06T02:57:57;3.03;;;2.83;;
44048;SDS011;29717;47.028;15.470;2023-08-06T03:00:24;4.03;;;3.08;;
44048;SDS011;29717;47.028;15.470;2023-08-06T03:02:50;2.90;;;2.70;;
44048;SDS011;29717;47.028;15.470;2023-08-06T03:05:18;3.03;;;2.80;;
44048;SDS011;29717;47.028;15.470;2023-08-06T03:07:45;3.97;;;2.88;;
44048;SDS011;29717;47.028;15.470;2023-08-06T03:10:12;3.15;;;2.95;;
44048;SDS011;29717;47.028;15.470;2023-08-06T03:12:38;3.70;;;3.33;;
44048;SDS011;29717;47.028;15.470;2023-08-06T03:15:05;7.93;;;3.55;;
44048;SDS011;29717;47.028;15.470;2023-08-06T03:17:32;6.28;;;3.30;;
44048;SDS011;29717;47.028;15.470;2023-08-06T03:19:59;3.67;;;3.00;;
44048;SDS011;29717;47.028;15.470;2023-08-06T03:22:27;3.55;;;3.10;;
44048;SDS011;29717;47.028;15.470;2023-08-06T03:24:54;4.50;;;3.85;;
44048;SDS011;29717;47.028;15.470;2023-08-06T03:27:20;5.00;;;4.18;;
44048;SDS011;29717;47.028;15.470;2023-08-06T03:29:48;4.15;;;3.42;;
44048;SDS011;29717;47.028;15.470;2023-08-06T03:32:15;4.72;;;3.40;;
44048;SDS011;29717;47.028;15.470;2023-08-06T03:34:42;3.78;;;3.40;;
44048;SDS011;29717;47.028;15.470;2023-08-06T03:37:08;4.72;;;3.90;;
44048;SDS011;29717;47.028;15.470;2023-08-06T03:39:36;3.78;;;3.20;;
44048;SDS011;29717;47.028;15.470;2023-08-06T03:42:03;4.55;;;3.50;;
44048;SDS011;29717;47.028;15.470;2023-08-06T03:44:30;4.40;;;3.40;;
44048;SDS011;29717;47.028;15.470;2023-08-06T03:46:56;3.95;;;3.55;;
44048;SDS011;29717;47.028;15.470;2023-08-06T03:49:23;4.82;;;3.55;;
44048;SDS011;29717;47.028;15.470;2023-08-06T03:51:50;4.03;;;2.95;;
44048;SDS011;29717;47.028;15.470;2023-08-06T03:54:16;4.60;;;4.15;;
44048;SDS011;29717;47.028;15.470;2023-08-06T03:56:44;6.40;;;3.67;;
44048;SDS011;29717;47.028;15.470;2023-08-06T03:59:11;6.18;;;3.72;;
44048;SDS011;29717;47.028;15.470;2023-08-06T04:01:38;4.05;;;3.50;;
44048;SDS011;29717;47.028;15.470;2023-08-06T04:04:04;3.90;;;3.55;;
44048;SDS011;29717;47.028;15.470;2023-08-06T04:06:31;3.97;;;3.67;;
44048;SDS011;29717;47.028;15.470;2023-08-06T04:08:57;3.92;;;3.63;;
44048;SDS011;29717;47.028;15.470;2023-08-06T04:11:24;5.72;;;4.25;;
44048;SDS011;29717;47.028;15.470;2023-08-06T04:13:52;8.43;;;4.30;;
44048;SDS011;29717;47.028;15.470;2023-08-06T04:16:20;4.47;;;4.07;;
44048;SDS011;29717;47.028;15.470;2023-08-06T04:18:47;4.57;;;4.18;;
44048;SDS011;29717;47.028;15.470;2023-08-06T04:21:13;5.55;;;4.30;;
44048;SDS011;29717;47.028;15.470;2023-08-06T04:23:40;4.88;;;4.43;;
44048;SDS011;29717;47.028;15.470;2023-08-06T04:26:07;5.97;;;5.38;;
44048;SDS011;29717;47.028;15.470;2023-08-06T04:28:33;5.68;;;4.82;;
44048;SDS011;29717;47.028;15.470;2023-08-06T04:31:01;5.07;;;4.57;;
44048;SDS011;29717;47.028;15.470;2023-08-06T04:33:28;9.23;;;5.00;;
44048;SDS011;29717;47.028;15.470;2023-08-06T04:35:55;6.75;;;5.15;;
44048;SDS011;29717;47.028;15.470;2023-08-06T04:38:23;5.13;;;4.63;;
44048;SDS011;29717;47.028;15.470;2023-08-06T04:40:49;4.97;;;4.47;;
44048;SDS011;29717;47.028;15.470;2023-08-06T04:43:16;4.57;;;3.95;;
44048;SDS011;29717;47.028;15.470;2023-08-06T04:45:45;5.00;;;4.50;;
44048;SDS011;29717;47.028;15.470;2023-08-06T04:48:14;5.38;;;4.10;;
44048;SDS011;29717;47.028;15.470;2023-08-06T04:50:43;5.65;;;4.18;;
44048;SDS011;29717;47.028;15.470;2023-08-06T04:53:09;4.45;;;4.10;;
44048;SDS011;29717;47.028;15.470;2023-08-06T04:55:36;5.90;;;4.05;;
44048;SDS011;29717;47.028;15.470;2023-08-06T04:58:03;5.75;;;3.90;;
44048;SDS011;29717;47.028;15.470;2023-08-06T05:00:29;4.47;;;3.80;;
44048;SDS011;29717;47.028;15.470;2023-08-06T05:02:56;3.97;;;3.65;;
44048;SDS011;29717;47.028;15.470;2023-08-06T05:05:24;4.35;;;3.47;;
44048;SDS011;29717;47.028;15.470;2023-08-06T05:07:51;5.32;;;3.33;;
44048;SDS011;29717;47.028;15.470;2023-08-06T05:10:17;3.17;;;2.97;;
44048;SDS011;29717;47.028;15.470;2023-08-06T05:12:44;7.82;;;3.50;;
44048;SDS011;29717;47.028;15.470;2023-08-06T05:15:11;3.25;;;3.05;;
44048;SDS011;29717;47.028;15.470;2023-08-06T05:17:37;4.50;;;3.17;;
44048;SDS011;29717;47.028;15.470;2023-08-06T05:20:04;3.85;;;2.83;;
44048;SDS011;29717;47.028;15.470;2023-08-06T05:22:33;3.95;;;2.80;;
44048;SDS011;29717;47.028;15.470;2023-08-06T05:24:59;4.15;;;3.20;;
44048;SDS011;29717;47.028;15.470;2023-08-06T05:27:26;3.83;;;2.83;;
44048;SDS011;29717;47.028;15.470;2023-08-06T05:29:54;3.67;;;3.00;;
44048;SDS011;29717;47.028;15.470;2023-08-06T05:32:21;3.75;;;2.88;;
44048;SDS011;29717;47.028;15.470;2023-08-06T05:34:48;3.40;;;2.97;;
44048;SDS011;29717;47.028;15.470;2023-08-06T05:37:14;2.75;;;2.55;;
44048;SDS011;29717;47.028;15.470;2023-08-06T05:39:42;4.43;;;3.10;;
44048;SDS011;29717;47.028;15.470;2023-08-06T05:42:09;4.72;;;2.80;;
44048;SDS011;29717;47.028;15.470;2023-08-06T05:44:36;2.80;;;2.40;;
44048;SDS011;29717;47.028;15.470;2023-08-06T05:47:03;4.57;;;2.40;;
44048;SDS011;29717;47.028;15.470;2023-08-06T05:49:29;3.28;;;2.97;;
44048;SDS011;29717;47.028;15.470;2023-08-06T05:51:56;4.47;;;3.03;;
44048;SDS011;29717;47.028;15.470;2023-08-06T05:54:23;2.90;;;2.60;;
44048;SDS011;29717;47.028;15.470;2023-08-06T05:56:51;2.85;;;2.65;;
44048;SDS011;29717;47.028;15.470;2023-08-06T05:59:17;5.18;;;2.92;;
44048;SDS011;29717;47.028;15.470;2023-08-06T06:01:44;2.95;;;2.75;;
44048;SDS011;29717;47.028;15.470;2023-08-06T06:04:11;2.97;;;2.75;;
44048;SDS011;29717;47.028;15.470;2023-08-06T06:06:37;4.05;;;2.75;;
44048;SDS011;29717;47.028;15.470;2023-08-06T06:09:04;2.70;;;2.40;;
44048;SDS011;29717;47.028;15.470;2023-08-06T06:11:31;2.58;;;2.38;;
44048;SDS011;29717;47.028;15.470;2023-08-06T06:13:59;3.35;;;2.63;;
44048;SDS011;29717;47.028;15.470;2023-08-06T06:16:26;5.82;;;3.00;;
44048;SDS011;29717;47.028;15.470;2023-08-06T06:18:52;3.58;;;2.80;;
44048;SDS011;29717;47.028;15.470;2023-08-06T06:21:20;6.70;;;3.33;;
44048;SDS011;29717;47.028;15.470;2023-08-06T06:23:46;2.80;;;2.60;;
44048;SDS011;29717;47.028;15.470;2023-08-06T06:26:13;3.60;;;3.15;;
44048;SDS011;29717;47.028;15.470;2023-08-06T06:28:39;2.88;;;2.58;;
44048;SDS011;29717;47.028;15.470;2023-08-06T06:31:08;2.97;;;2.70;;
44048;SDS011;29717;47.028;15.470;2023-08-06T06:33:34;4.03;;;2.40;;
44048;SDS011;29717;47.028;15.470;2023-08-06T06:36:01;3.13;;;2.40;;
44048;SDS011;29717;47.028;15.470;2023-08-06T06:38:28;2.58;;;2.38;;
44048;SDS011;29717;47.028;15.470;2023-08-06T06:40:55;3.38;;;2.33;;
44048;SDS011;29717;47.028;15.470;2023-08-06T06:43:22;2.88;;;2.47;;
44048;SDS011;29717;47.028;15.470;2023-08-06T06:45:52;1.85;;;1.73;;
44048;SDS011;29717;47.028;15.470;2023-08-06T06:48:20;2.20;;;2.00;;
44048;SDS011;29717;47.028;15.470;2023-08-06T06:50:47;4.60;;;1.80;;
44048;SDS011;29717;47.028;15.470;2023-08-06T06:53:13;2.05;;;1.92;;
44048;SDS011;29717;47.028;15.470;2023-08-06T06:55:40;2.28;;;1.90;;
44048;SDS011;29717;47.028;15.470;2023-08-06T06:58:07;3.05;;;1.80;;
44048;SDS011;29717;47.028;15.470;2023-08-06T07:00:35;2.40;;;1.60;;
44048;SDS011;29717;47.028;15.470;2023-08-06T07:03:01;1.58;;;1.27;;
44048;SDS011;29717;47.028;15.470;2023-08-06T07:05:29;1.67;;;1.33;;
44048;SDS011;29717;47.028;15.470;2023-08-06T07:07:56;2.25;;;1.27;;
44048;SDS011;29717;47.028;15.470;2023-08-06T07:10:23;1.90;;;1.80;;
44048;SDS011;29717;47.028;15.470;2023-08-06T07:12:49;1.20;;;1.10;;
44048;SDS011;29717;47.028;15.470;2023-08-06T07:15:16;2.22;;;1.13;;
44048;SDS011;29717;47.028;15.470;2023-08-06T07:17:43;1.30;;;1.20;;
44048;SDS011;29717;47.028;15.470;2023-08-06T07:20:10;1.30;;;1.20;;
44048;SDS011;29717;47.028;15.470;2023-08-06T07:22:38;2.78;;;0.90;;
44048;SDS011;29717;47.028;15.470;2023-08-06T07:25:05;2.00;;;1.00;;
44048;SDS011;29717;47.028;15.470;2023-08-06T07:27:32;4.50;;;1.08;;
44048;SDS011;29717;47.028;15.470;2023-08-06T07:29:59;1.58;;;0.98;;
44048;SDS011;29717;47.028;15.470;2023-08-06T07:32:25;1.20;;;1.10;;
44048;SDS011;29717;47.028;15.470;2023-08-06T07:34:53;0.90;;;0.90;;
44048;SDS011;29717;47.028;15.470;2023-08-06T07:37:24;2.97;;;1.27;;
44048;SDS011;29717;47.028;15.470;2023-08-06T07:39:54;1.95;;;1.20;;
44048;SDS011;29717;47.028;15.470;2023-08-06T07:42:21;2.00;;;1.33;;
44048;SDS011;29717;47.028;15.470;2023-08-06T07:44:50;1.75;;;1.38;;
44048;SDS011;29717;47.028;15.470;2023-08-06T07:47:17;1.73;;;1.30;;
44048;SDS011;29717;47.028;15.470;2023-08-06T07:49:44;1.58;;;1.38;;
44048;SDS011;29717;47.028;15.470;2023-08-06T07:52:10;1.77;;;1.35;;
44048;SDS011;29717;47.028;15.470;2023-08-06T07:54:37;1.73;;;1.17;;
44048;SDS011;29717;47.028;15.470;2023-08-06T07:57:05;2.88;;;1.20;;
44048;SDS011;29717;47.028;15.470;2023-08-06T07:59:32;1.70;;;1.60;;
44048;SDS011;29717;47.028;15.470;2023-08-06T08:01:59;1.98;;;1.48;;
44048;SDS011;29717;47.028;15.470;2023-08-06T08:04:26;1.60;;;1.10;;
44048;SDS011;29717;47.028;15.470;2023-08-06T08:06:53;1.85;;;1.50;;
44048;SDS011;29717;47.028;15.470;2023-08-06T08:09:19;2.00;;;1.50;;
44048;SDS011;29717;47.028;15.470;2023-08-06T08:11:46;4.03;;;1.50;;
44048;SDS011;29717;47.028;15.470;2023-08-06T08:14:14;1.67;;;1.42;;
44048;SDS011;29717;47.028;15.470;2023-08-06T08:16:41;3.10;;;1.30;;
44048;SDS011;29717;47.028;15.470;2023-08-06T08:19:08;1.75;;;1.50;;
44048;SDS011;29717;47.028;15.470;2023-08-06T08:21:34;1.30;;;1.20;;
44048;SDS011;29717;47.028;15.470;2023-08-06T08:24:01;2.28;;;1.83;;
44048;SDS011;29717;47.028;15.470;2023-08-06T08:26:28;1.98;;;1.85;;
44048;SDS011;29717;47.028;15.470;2023-08-06T08:28:54;2.35;;;1.50;;
44048;SDS011;29717;47.028;15.470;2023-08-06T08:31:23;2.53;;;1.40;;
44048;SDS011;29717;47.028;15.470;2023-08-06T08:33:50;1.15;;;1.15;;
44048;SDS011;29717;47.028;15.470;2023-08-06T08:36:16;3.25;;;1.70;;
44048;SDS011;29717;47.028;15.470;2023-08-06T08:38:43;2.03;;;1.67;;
44048;SDS011;29717;47.028;15.470;2023-08-06T08:41:10;1.92;;;1.73;;
44048;SDS011;29717;47.028;15.470;2023-08-06T08:43:36;2.05;;;1.85;;
44048;SDS011;29717;47.028;15.470;2023-08-06T08:46:04;2.25;;;2.03;;
44048;SDS011;29717;47.028;15.470;2023-08-06T08:48:33;2.75;;;1.70;;
44048;SDS011;29717;47.028;15.470;2023-08-06T08:51:00;1.88;;;1.77;;
44048;SDS011;29717;47.028;15.470;2023-08-06T08:53:28;2.00;;;1.75;;
44048;SDS011;29717;47.028;15.470;2023-08-06T08:55:55;2.83;;;1.70;;
44048;SDS011;29717;47.028;15.470;2023-08-06T08:58:21;2.08;;;1.60;;
44048;SDS011;29717;47.028;15.470;2023-08-06T09:00:48;2.00;;;1.63;;
44048;SDS011;29717;47.028;15.470;2023-08-06T09:03:15;1.40;;;1.30;;
44048;SDS011;29717;47.028;15.470;2023-08-06T09:05:44;1.30;;;1.20;;
44048;SDS011;29717;47.028;15.470;2023-08-06T09:08:12;2.47;;;1.33;;
44048;SDS011;29717;47.028;15.470;2023-08-06T09:10:41;1.65;;;1.40;;
44048;SDS011;29717;47.028;15.470;2023-08-06T09:13:09;1.40;;;1.20;;
44048;SDS011;29717;47.028;15.470;2023-08-06T09:15:37;1.50;;;1.20;;
44048;SDS011;29717;47.028;15.470;2023-08-06T09:18:08;1.50;;;1.38;;
44048;SDS011;29717;47.028;15.470;2023-08-06T09:20:35;1.33;;;1.23;;
44048;SDS011;29717;47.028;15.470;2023-08-06T09:23:08;1.80;;;1.50;;
44048;SDS011;29717;47.028;15.470;2023-08-06T09:25:37;1.65;;;1.55;;
44048;SDS011;29717;47.028;15.470;2023-08-06T09:28:04;3.47;;;1.73;;
44048;SDS011;29717;47.028;15.470;2023-08-06T09:30:31;1.90;;;1.80;;
44048;SDS011;29717;47.028;15.470;2023-08-06T09:32:58;1.70;;;1.60;;
44048;SDS011;29717;47.028;15.470;2023-08-06T09:35:27;4.70;;;1.52;;
44048;SDS011;29717;47.028;15.470;2023-08-06T09:37:54;2.90;;;1.80;;
44048;SDS011;29717;47.028;15.470;2023-08-06T09:40:28;3.05;;;1.90;;
44048;SDS011;29717;47.028;15.470;2023-08-06T09:42:56;1.50;;;1.40;;
44048;SDS011;29717;47.028;15.470;2023-08-06T09:45:23;1.65;;;1.38;;
44048;SDS011;29717;47.028;15.470;2023-08-06T09:47:49;1.83;;;1.25;;
44048;SDS011;29717;47.028;15.470;2023-08-06T09:50:16;1.35;;;1.20;;
44048;SDS011;29717;47.028;15.470;2023-08-06T09:52:43;1.63;;;1.52;;
44048;SDS011;29717;47.028;15.470;2023-08-06T09:55:10;1.70;;;1.20;;
44048;SDS011;29717;47.028;15.470;2023-08-06T09:57:39;1.20;;;1.10;;
44048;SDS011;29717;47.028;15.470;2023-08-06T10:00:07;2.15;;;1.10;;
44048;SDS011;29717;47.028;15.470;2023-08-06T10:02:35;1.52;;;1.15;;
44048;SDS011;29717;47.028;15.470;2023-08-06T10:05:02;1.50;;;1.40;;
44048;SDS011;29717;47.028;15.470;2023-08-06T10:07:29;2.10;;;1.98;;
44048;SDS011;29717;47.028;15.470;2023-08-06T10:09:56;1.52;;;1.40;;
44048;SDS011;29717;47.028;15.470;2023-08-06T10:12:23;1.63;;;1.52;;
44048;SDS011;29717;47.028;15.470;2023-08-06T10:14:53;2.13;;;1.30;;
44048;SDS011;29717;47.028;15.470;2023-08-06T10:17:20;1.98;;;1.48;;
44048;SDS011;29717;47.028;15.470;2023-08-06T10:19:48;1.50;;;1.40;;
44048;SDS011;29717;47.028;15.470;2023-08-06T10:22:15;1.35;;;1.20;;
44048;SDS011;29717;47.028;15.470;2023-08-06T10:24:46;1.60;;;1.20;;
44048;SDS011;29717;47.028;15.470;2023-08-06T10:27:12;1.73;;;1.35;;
44048;SDS011;29717;47.028;15.470;2023-08-06T10:29:39;3.15;;;1.05;;
44048;SDS011;29717;47.028;15.470;2023-08-06T10:32:07;1.30;;;1.20;;
44048;SDS011;29717;47.028;15.470;2023-08-06T10:37:19;1.20;;;1.10;;
44048;SDS011;29717;47.028;15.470;2023-08-06T10:39:48;1.20;;;1.10;;
44048;SDS011;29717;47.028;15.470;2023-08-06T10:42:19;2.00;;;0.80;;
44048;SDS011;29717;47.028;15.470;2023-08-06T10:47:29;1.20;;;1.10;;
44048;SDS011;29717;47.028;15.470;2023-08-06T10:49:55;2.28;;;0.85;;
44048;SDS011;29717;47.028;15.470;2023-08-06T10:52:23;0.98;;;0.90;;
44048;SDS011;29717;47.028;15.470;2023-08-06T10:54:50;0.90;;;0.90;;
44048;SDS011;29717;47.028;15.470;2023-08-06T10:57:16;1.10;;;0.90;;
44048;SDS011;29717;47.028;15.470;2023-08-06T10:59:43;1.45;;;1.00;;
44048;SDS011;29717;47.028;15.470;2023-08-06T11:02:10;1.23;;;1.10;;
44048;SDS011;29717;47.028;15.470;2023-08-06T11:04:38;0.98;;;0.90;;
44048;SDS011;29717;47.028;15.470;2023-08-06T11:07:06;0.85;;;0.85;;
44048;SDS011;29717;47.028;15.470;2023-08-06T11:09:33;4.25;;;1.15;;
44048;SDS011;29717;47.028;15.470;2023-08-06T11:12:00;1.10;;;0.88;;
44048;SDS011;29717;47.028;15.470;2023-08-06T11:14:26;0.73;;;0.70;;
44048;SDS011;29717;47.028;15.470;2023-08-06T11:16:53;1.45;;;0.73;;
44048;SDS011;29717;47.028;15.470;2023-08-06T11:19:20;0.75;;;0.70;;
44048;SDS011;29717;47.028;15.470;2023-08-06T11:21:51;0.90;;;0.70;;
44048;SDS011;29717;47.028;15.470;2023-08-06T11:24:18;5.07;;;0.80;;
44048;SDS011;29717;47.028;15.470;2023-08-06T11:26:44;0.70;;;0.70;;
44048;SDS011;29717;47.028;15.470;2023-08-06T11:29:11;0.82;;;0.63;;
44048;SDS011;29717;47.028;15.470;2023-08-06T11:31:38;1.73;;;0.60;;
44048;SDS011;29717;47.028;15.470;2023-08-06T11:34:05;0.73;;;0.50;;
44048;SDS011;29717;47.028;15.470;2023-08-06T11:36:32;1.85;;;0.50;;
44048;SDS011;29717;47.028;15.470;2023-08-06T11:39:01;0.60;;;0.60;;
44048;SDS011;29717;47.028;15.470;2023-08-06T11:41:29;0.60;;;0.60;;
44048;SDS011;29717;47.028;15.470;2023-08-06T11:43:56;0.77;;;0.63;;
44048;SDS011;29717;47.028;15.470;2023-08-06T11:46:22;1.27;;;0.60;;
44048;SDS011;29717;47.028;15.470;2023-08-06T11:48:50;0.88;;;0.70;;
44048;SDS011;29717;47.028;15.470;2023-08-06T11:51:17;0.88;;;0.70;;
44048;SDS011;29717;47.028;15.470;2023-08-06T11:53:46;0.70;;;0.60;;
44048;SDS011;29717;47.028;15.470;2023-08-06T11:56:16;0.70;;;0.70;;
44048;SDS011;29717;47.028;15.470;2023-08-06T11:58:42;0.90;;;0.60;;
44048;SDS011;29717;47.028;15.470;2023-08-06T12:01:09;1.83;;;0.65;;
44048;SDS011;29717;47.028;15.470;2023-08-06T12:03:38;2.53;;;0.80;;
44048;SDS011;29717;47.028;15.470;2023-08-06T12:06:05;0.52;;;0.52;;
44048;SDS011;29717;47.028;15.470;2023-08-06T12:08:32;0.95;;;0.60;;
44048;SDS011;29717;47.028;15.470;2023-08-06T12:10:59;0.80;;;0.70;;
44048;SDS011;29717;47.028;15.470;2023-08-06T12:13:27;0.75;;;0.63;;
44048;SDS011;29717;47.028;15.470;2023-08-06T12:15:54;3.00;;;0.75;;
44048;SDS011;29717;47.028;15.470;2023-08-06T12:18:22;0.60;;;0.60;;
44048;SDS011;29717;47.028;15.470;2023-08-06T12:20:49;0.47;;;0.47;;
44048;SDS011;29717;47.028;15.470;2023-08-06T12:23:16;3.22;;;0.68;;
44048;SDS011;29717;47.028;15.470;2023-08-06T12:25:42;0.80;;;0.70;;
44048;SDS011;29717;47.028;15.470;2023-08-06T12:28:09;0.70;;;0.60;;
44048;SDS011;29717;47.028;15.470;2023-08-06T12:30:39;0.70;;;0.70;;
44048;SDS011;29717;47.028;15.470;2023-08-06T12:33:09;1.30;;;0.63;;
44048;SDS011;29717;47.028;15.470;2023-08-06T12:35:36;1.27;;;0.60;;
44048;SDS011;29717;47.028;15.470;2023-08-06T12:38:03;0.85;;;0.63;;
44048;SDS011;29717;47.028;15.470;2023-08-06T12:40:30;0.60;;;0.60;;
44048;SDS011;29717;47.028;15.470;2023-08-06T12:42:56;1.10;;;0.50;;
44048;SDS011;29717;47.028;15.470;2023-08-06T12:45:24;0.52;;;0.52;;
44048;SDS011;29717;47.028;15.470;2023-08-06T12:47:52;1.35;;;0.60;;
44048;SDS011;29717;47.028;15.470;2023-08-06T12:50:19;0.55;;;0.55;;
44048;SDS011;29717;47.028;15.470;2023-08-06T12:52:46;0.60;;;0.60;;
44048;SDS011;29717;47.028;15.470;2023-08-06T12:55:12;1.88;;;0.77;;
44048;SDS011;29717;47.028;15.470;2023-08-06T12:57:39;2.53;;;0.75;;
44048;SDS011;29717;47.028;15.470;2023-08-06T13:00:06;0.82;;;0.75;;
44048;SDS011;29717;47.028;15.470;2023-08-06T13:02:33;0.50;;;0.50;;
44048;SDS011;29717;47.028;15.470;2023-08-06T13:05:01;0.50;;;0.50;;
44048;SDS011;29717;47.028;15.470;2023-08-06T13:07:30;1.15;;;0.60;;
44048;SDS011;29717;47.028;15.470;2023-08-06T13:09:57;0.70;;;0.60;;
44048;SDS011;29717;47.028;15.470;2023-08-06T13:12:24;0.40;;;0.40;;
44048;SDS011;29717;47.028;15.470;2023-08-06T13:14:50;0.50;;;0.50;;
44048;SDS011;29717;47.028;15.470;2023-08-06T13:17:18;0.50;;;0.50;;
44048;SDS011;29717;47.028;15.470;2023-08-06T13:19:45;0.63;;;0.63;;
44048;SDS011;29717;47.028;15.470;2023-08-06T13:22:13;0.40;;;0.40;;
44048;SDS011;29717;47.028;15.470;2023-08-06T13:24:39;3.42;;;0.63;;
44048;SDS011;29717;47.028;15.470;2023-08-06T13:27:06;0.90;;;0.80;;
44048;SDS011;29717;47.028;15.470;2023-08-06T13:29:34;2.45;;;0.40;;
44048;SDS011;29717;47.028;15.470;2023-08-06T13:32:01;0.57;;;0.57;;
44048;SDS011;29717;47.028;15.470;2023-08-06T13:34:28;1.50;;;0.50;;
44048;SDS011;29717;47.028;15.470;2023-08-06T13:36:54;0.40;;;0.40;;
44048;SDS011;29717;47.028;15.470;2023-08-06T13:39:22;0.57;;;0.57;;
44048;SDS011;29717;47.028;15.470;2023-08-06T13:41:49;0.57;;;0.50;;
44048;SDS011;29717;47.028;15.470;2023-08-06T13:44:16;0.40;;;0.40;;
44048;SDS011;29717;47.028;15.470;2023-08-06T13:46:42;1.27;;;0.40;;
44048;SDS011;29717;47.028;15.470;2023-08-06T13:49:09;1.27;;;0.50;;
44048;SDS011;29717;47.028;15.470;2023-08-06T13:51:36;1.15;;;0.57;;
44048;SDS011;29717;47.028;15.470;2023-08-06T13:54:03;0.45;;;0.45;;
44048;SDS011;29717;47.028;15.470;2023-08-06T13:56:31;0.60;;;0.50;;
44048;SDS011;29717;47.028;15.470;2023-08-06T13:58:58;0.52;;;0.50;;
44048;SDS011;29717;47.028;15.470;2023-08-06T14:01:25;0.65;;;0.60;;
44048;SDS011;29717;47.028;15.470;2023-08-06T14:03:52;0.85;;;0.63;;
44048;SDS011;29717;47.028;15.470;2023-08-06T14:06:19;0.60;;;0.50;;
44048;SDS011;29717;47.028;15.470;2023-08-06T14:08:46;1.10;;;0.60;;
44048;SDS011;29717;47.028;15.470;2023-08-06T14:11:13;0.73;;;0.50;;
44048;SDS011;29717;47.028;15.470;2023-08-06T14:13:41;1.95;;;0.75;;
44048;SDS011;29717;47.028;15.470;2023-08-06T14:16:07;0.80;;;0.50;;
44048;SDS011;29717;47.028;15.470;2023-08-06T14:18:34;2.75;;;0.90;;
44048;SDS011;29717;47.028;15.470;2023-08-06T14:21:03;0.70;;;0.70;;
44048;SDS011;29717;47.028;15.470;2023-08-06T14:23:30;0.73;;;0.57;;
44048;SDS011;29717;47.028;15.470;2023-08-06T14:25:57;1.25;;;0.50;;
44048;SDS011;29717;47.028;15.470;2023-08-06T14:28:23;0.90;;;0.63;;
44048;SDS011;29717;47.028;15.470;2023-08-06T14:30:51;0.77;;;0.55;;
44048;SDS011;29717;47.028;15.470;2023-08-06T14:33:18;0.55;;;0.55;;
44048;SDS011;29717;47.028;15.470;2023-08-06T14:35:45;0.50;;;0.50;;
44048;SDS011;29717;47.028;15.470;2023-08-06T14:38:11;0.98;;;0.75;;